Wilbur by the Sea, Florida
Current Conditions -  °F | °C
As of 3:45 AM on Sunday 23 Nov 2014 (Local Time) from KDAB Reporting Station
Light Rain Light Rain  
Wind Chill: 71°   Ceiling: 2000
Heat Index: 71°   Visibility: 2mi
Dew Point: 68°   Wind: 8mph
Humidity: 90%   Direction: 150°SSE
Pressure: 30.03"   Gusts: NA
Location:  29.1091°N, 80.9979°W
Report Text: KDAB 230845Z 15007KT 2SM -RA BR BKN020 OVC027 22/20 A3003 RMK AO2 RAE15B40 P0001 T02170200
Loading
Personal Weather Stations






























Interactive Weather Map New forecast layout! Learn more

10-Day Weather Forecast

Advertisements
Track Severe Weather on mobile